Bretagne — FNBR — position and weather

sailwx.info

Track history (hours):
 
Tides and Currents Weather Stations Pressure Air Temp Water Temp Dewpoint Dewpoint Depression Visibility Wind Speed Wind Dir Waves Ship Positions

Bretagne

Operator: Brittany Ferries

Last reported at 2020-Sep-09 07:41 UTC. Time now 2020-Sep-25 16:48 UTC.
Position N 49°29' E 000°11'.
Warning: this ship's position is 16 days out of date.

Length 151 m; beam 27 m.

Type: Ship. MMSI: 227286000.

Date/timePositionNaut miles runAvg speedWind from/ knotsBaromVisibWave heightAir tempDewpointWater temp
2020-Sep-09 07:41N 49°29' E 000°11'0 0.0
2020-Sep-09 06:59N 49°29' E 000°11'0 0.0
2020-Sep-09 05:59N 49°29' E 000°11'0 0.0
2020-Sep-09 02:59N 49°29' E 000°11'0 0.0
2020-Sep-09 01:59N 49°29' E 000°11'0 0.0
2020-Sep-09 01:00N 49°29' E 000°11'0 0.0
2020-Sep-09 00:30N 49°29' E 000°11'0 0.0
2020-Sep-08 23:30N 49°29' E 000°11'0 0.0
2020-Sep-08 19:00N 49°29' E 000°11'0 0.0
2020-Sep-08 16:30N 49°29' E 000°11'0 0.0
2020-Sep-08 15:30N 49°29' E 000°11'0 0.0
2020-Sep-08 14:30N 49°29' E 000°11'0 0.0
2020-Sep-08 13:30N 49°29' E 000°11'0 0.0
2020-Sep-08 13:00N 49°29' E 000°11'3 0.7
2020-Sep-08 08:58N 49°29' E 000°07'0 0.0
2020-Sep-08 07:58N 49°29' E 000°07'1 0.2
2020-Sep-08 05:30N 49°29' E 000°06'13 6.3
2020-Sep-08 03:30N 49°32' W 000°13'1 0.6
2020-Sep-08 02:00N 49°31' W 000°13'2 1.9
2020-Sep-08 01:00N 49°31' W 000°11'4 1.8
2020-Sep-07 23:00N 49°30' W 000°16'1 2.3
2020-Sep-07 22:30N 49°31' W 000°18'4 2.4
2020-Sep-07 21:00N 49°32' W 000°23'1 1.4
2020-Sep-07 20:00N 49°32' W 000°25'21 6.0
2020-Sep-07 16:29N 49°29' E 000°07'0 0.0
2020-Sep-07 12:59N 49°29' E 000°07'14 9.3
2020-Sep-07 11:30N 49°32' W 000°14'7 2.4
2020-Sep-07 08:31N 49°32' W 000°25'0 0.9
2020-Sep-07 08:01N 49°33' W 000°25'1 0.3
2020-Sep-07 05:31N 49°32' W 000°24'0 0.9
2020-Sep-07 05:01N 49°32' W 000°24'1 1.0
2020-Sep-07 04:01N 49°31' W 000°23'10 5.1
2020-Sep-07 02:01N 49°41' W 000°22'2110.7
2020-Sep-07 00:01N 50°02' W 000°28'510.6
2020-Sep-06 23:30N 50°08' W 000°28'3011.9
2020-Sep-06 21:01N 50°33' W 000°53'10 1.9
2020-Sep-06 16:00N 50°37' W 001°07'713.5
2020-Sep-06 15:30N 50°31' W 001°12'4916.4
2020-Sep-06 12:31N 49°51' W 001°54'1817.8
2020-Sep-06 11:31N 49°33' W 001°59'2919.2
2020-Sep-06 10:00N 49°05' W 001°51'22 4.3
2020-Sep-06 04:58N 48°51' W 002°16'2613.4
2020-Sep-06 03:01N 49°17' W 002°21'714.5
2020-Sep-06 02:30N 49°24' W 002°17'4116.2
2020-Sep-06 00:00N 49°60' W 001°47'52 6.9
2020-Sep-05 16:30N 50°44' W 001°04'611.7
2020-Sep-05 16:00N 50°38' W 001°06'3014.7
2020-Sep-05 13:59N 50°12' W 001°28'3417.1
2020-Sep-05 12:00N 49°45' W 001°59'6610.8
2020-Sep-05 05:55N 48°39' W 002°03'2316.5
2020-Sep-05 04:30N 48°58' W 002°22'713.4
2020-Sep-05 04:00N 49°05' W 002°22'713.7
2020-Sep-05 03:30N 49°12' W 002°22'713.8
2020-Sep-05 03:01N 49°19' W 002°20'1514.8
2020-Sep-05 02:01N 49°32' W 002°11'918.9
2020-Sep-05 01:30N 49°41' W 002°05'7314.5
2020-Sep-04 20:30N 50°41' W 001°03'11 2.1
2020-Sep-04 15:30N 50°32' W 001°12'3115.4
2020-Sep-04 13:31N 50°06' W 001°36'1818.1
2020-Sep-04 12:30N 49°51' W 001°53'1818.1
2020-Sep-04 11:31N 49°34' W 002°03'1020.0
2020-Sep-04 11:01N 49°24' W 002°04'2718.1
2020-Sep-04 09:31N 48°58' W 001°55'20 5.6
2020-Sep-04 05:58N 48°38' W 002°02'1516.0
2020-Sep-04 05:00N 48°51' W 002°16'5513.7
2020-Sep-04 01:00N 49°45' W 002°03'1615.9
2020-Sep-04 00:00N 49°58' W 001°50'3913.1
2020-Sep-03 21:01N 50°30' W 001°13'611.5
2020-Sep-03 20:31N 50°35' W 001°08'10 2.5
2020-Sep-03 16:31N 50°45' W 001°05'611.9
2020-Sep-03 16:01N 50°39' W 001°05'10617.7
2020-Sep-03 10:01N 49°04' W 002°22'1020.7
2020-Sep-03 09:30N 48°54' W 002°20'2012.5
2020-Sep-03 07:57N 48°38' W 002°02'0 0.0
2020-Sep-03 07:27N 48°38' W 002°02'7 3.5
2020-Sep-03 05:30N 48°44' W 002°07'1616.2
2020-Sep-03 04:31N 48°57' W 002°23'2914.6
2020-Sep-03 02:30N 49°25' W 002°14'4013.4
2020-Sep-02 23:30N 50°01' W 001°46'3413.8
2020-Sep-02 21:00N 50°29' W 001°14'612.8
2020-Sep-02 20:30N 50°35' W 001°09'14 9.5
2020-Sep-02 19:00N 50°49' W 001°06'0 0.0
2020-Sep-02 17:30N 50°49' W 001°06'0 0.0
2020-Sep-02 12:00N 50°49' W 001°06'0 0.0
2020-Sep-02 09:58N 50°49' W 001°06'0 0.0
2020-Sep-02 09:29N 50°49' W 001°06'48 7.1
2020-Sep-02 02:46N 50°06' W 001°39'2312.9
2020-Sep-02 01:00N 49°47' W 001°59'510.0
2020-Sep-02 00:30N 49°43' W 002°03'8 7.8
2020-Sep-01 23:30N 49°36' W 002°07'2911.7
2020-Sep-01 21:00N 49°08' W 002°23'33 2.2
2020-Sep-01 05:59N 48°38' W 002°02'1313.1
2020-Sep-01 04:59N 48°49' W 002°13'612.9
2020-Sep-01 04:30N 48°53' W 002°20'1812.1
2020-Sep-01 03:01N 49°12' W 002°22'4813.6
2020-Aug-31 23:30N 49°55' W 001°52'814.4
2020-Aug-31 22:55N 50°02' W 001°44'3116.3
2020-Aug-31 21:00N 50°27' W 001°16'22 8.9
2020-Aug-31 18:30N 50°49' W 001°06'6 3.0
2020-Aug-31 16:30N 50°43' W 001°02'611.6
2020-Aug-31 16:00N 50°38' W 001°06'3817.3
2020-Aug-31 13:49N 50°07' W 001°42'7417.2
2020-Aug-31 09:30N 48°58' W 002°22'12 2.6
2020-Aug-31 05:02N 48°48' W 002°12'611.9
2020-Aug-31 04:31N 48°53' W 002°19'1111.4
2020-Aug-31 03:31N 49°04' W 002°22'612.0
2020-Aug-31 03:01N 49°10' W 002°22'1211.6
2020-Aug-31 02:01N 49°21' W 002°18'7515.1
2020-Aug-30 21:02N 50°26' W 001°19'24 5.9
2020-Aug-30 17:01N 50°48' W 001°07'11316.2
2020-Aug-30 10:01N 49°06' W 002°22'  
Track history (hours):
 
Tides and Currents Weather Stations Pressure Air Temp Water Temp Dewpoint Dewpoint Depression Visibility Wind Speed Wind Dir Waves Ship Positions

Bretagne

Operator: Brittany Ferries

Last reported at 2020-Sep-09 07:41 UTC. Time now 2020-Sep-25 16:48 UTC.
Position N 49°29' E 000°11'.
Warning: this ship's position is 16 days out of date.

Length 151 m; beam 27 m.

Type: Ship. MMSI: 227286000.

Date/timePositionNaut miles runAvg speedWind from/ knotsBaromVisibWave heightAir tempDewpointWater temp
2020-Sep-09 07:41N 49°29' E 000°11'0 0.0
2020-Sep-09 06:59N 49°29' E 000°11'0 0.0
2020-Sep-09 05:59N 49°29' E 000°11'0 0.0
2020-Sep-09 02:59N 49°29' E 000°11'0 0.0
2020-Sep-09 01:59N 49°29' E 000°11'0 0.0
2020-Sep-09 01:00N 49°29' E 000°11'0 0.0
2020-Sep-09 00:30N 49°29' E 000°11'0 0.0
2020-Sep-08 23:30N 49°29' E 000°11'0 0.0
2020-Sep-08 19:00N 49°29' E 000°11'0 0.0
2020-Sep-08 16:30N 49°29' E 000°11'0 0.0
2020-Sep-08 15:30N 49°29' E 000°11'0 0.0
2020-Sep-08 14:30N 49°29' E 000°11'0 0.0
2020-Sep-08 13:30N 49°29' E 000°11'0 0.0
2020-Sep-08 13:00N 49°29' E 000°11'3 0.7
2020-Sep-08 08:58N 49°29' E 000°07'0 0.0
2020-Sep-08 07:58N 49°29' E 000°07'1 0.2
2020-Sep-08 05:30N 49°29' E 000°06'13 6.3
2020-Sep-08 03:30N 49°32' W 000°13'1 0.6
2020-Sep-08 02:00N 49°31' W 000°13'2 1.9
2020-Sep-08 01:00N 49°31' W 000°11'4 1.8
2020-Sep-07 23:00N 49°30' W 000°16'1 2.3
2020-Sep-07 22:30N 49°31' W 000°18'4 2.4
2020-Sep-07 21:00N 49°32' W 000°23'1 1.4
2020-Sep-07 20:00N 49°32' W 000°25'21 6.0
2020-Sep-07 16:29N 49°29' E 000°07'0 0.0
2020-Sep-07 12:59N 49°29' E 000°07'14 9.3
2020-Sep-07 11:30N 49°32' W 000°14'7 2.4
2020-Sep-07 08:31N 49°32' W 000°25'0 0.9
2020-Sep-07 08:01N 49°33' W 000°25'1 0.3
2020-Sep-07 05:31N 49°32' W 000°24'0 0.9
2020-Sep-07 05:01N 49°32' W 000°24'1 1.0
2020-Sep-07 04:01N 49°31' W 000°23'10 5.1
2020-Sep-07 02:01N 49°41' W 000°22'2110.7
2020-Sep-07 00:01N 50°02' W 000°28'510.6
2020-Sep-06 23:30N 50°08' W 000°28'3011.9
2020-Sep-06 21:01N 50°33' W 000°53'10 1.9
2020-Sep-06 16:00N 50°37' W 001°07'713.5
2020-Sep-06 15:30N 50°31' W 001°12'4916.4
2020-Sep-06 12:31N 49°51' W 001°54'1817.8
2020-Sep-06 11:31N 49°33' W 001°59'2919.2
2020-Sep-06 10:00N 49°05' W 001°51'22 4.3
2020-Sep-06 04:58N 48°51' W 002°16'2613.4
2020-Sep-06 03:01N 49°17' W 002°21'714.5
2020-Sep-06 02:30N 49°24' W 002°17'4116.2
2020-Sep-06 00:00N 49°60' W 001°47'52 6.9
2020-Sep-05 16:30N 50°44' W 001°04'611.7
2020-Sep-05 16:00N 50°38' W 001°06'3014.7
2020-Sep-05 13:59N 50°12' W 001°28'3417.1
2020-Sep-05 12:00N 49°45' W 001°59'6610.8
2020-Sep-05 05:55N 48°39' W 002°03'2316.5
2020-Sep-05 04:30N 48°58' W 002°22'713.4
2020-Sep-05 04:00N 49°05' W 002°22'713.7
2020-Sep-05 03:30N 49°12' W 002°22'713.8
2020-Sep-05 03:01N 49°19' W 002°20'1514.8
2020-Sep-05 02:01N 49°32' W 002°11'918.9
2020-Sep-05 01:30N 49°41' W 002°05'7314.5
2020-Sep-04 20:30N 50°41' W 001°03'11 2.1
2020-Sep-04 15:30N 50°32' W 001°12'3115.4
2020-Sep-04 13:31N 50°06' W 001°36'1818.1
2020-Sep-04 12:30N 49°51' W 001°53'1818.1
2020-Sep-04 11:31N 49°34' W 002°03'1020.0
2020-Sep-04 11:01N 49°24' W 002°04'2718.1
2020-Sep-04 09:31N 48°58' W 001°55'20 5.6
2020-Sep-04 05:58N 48°38' W 002°02'1516.0
2020-Sep-04 05:00N 48°51' W 002°16'5513.7
2020-Sep-04 01:00N 49°45' W 002°03'1615.9
2020-Sep-04 00:00N 49°58' W 001°50'3913.1
2020-Sep-03 21:01N 50°30' W 001°13'611.5
2020-Sep-03 20:31N 50°35' W 001°08'10 2.5
2020-Sep-03 16:31N 50°45' W 001°05'611.9
2020-Sep-03 16:01N 50°39' W 001°05'10617.7
2020-Sep-03 10:01N 49°04' W 002°22'1020.7
2020-Sep-03 09:30N 48°54' W 002°20'2012.5
2020-Sep-03 07:57N 48°38' W 002°02'0 0.0
2020-Sep-03 07:27N 48°38' W 002°02'7 3.5
2020-Sep-03 05:30N 48°44' W 002°07'1616.2
2020-Sep-03 04:31N 48°57' W 002°23'2914.6
2020-Sep-03 02:30N 49°25' W 002°14'4013.4
2020-Sep-02 23:30N 50°01' W 001°46'3413.8
2020-Sep-02 21:00N 50°29' W 001°14'612.8
2020-Sep-02 20:30N 50°35' W 001°09'14 9.5
2020-Sep-02 19:00N 50°49' W 001°06'0 0.0
2020-Sep-02 17:30N 50°49' W 001°06'0 0.0
2020-Sep-02 12:00N 50°49' W 001°06'0 0.0
2020-Sep-02 09:58N 50°49' W 001°06'0 0.0
2020-Sep-02 09:29N 50°49' W 001°06'48 7.1
2020-Sep-02 02:46N 50°06' W 001°39'2312.9
2020-Sep-02 01:00N 49°47' W 001°59'510.0
2020-Sep-02 00:30N 49°43' W 002°03'8 7.8
2020-Sep-01 23:30N 49°36' W 002°07'2911.7
2020-Sep-01 21:00N 49°08' W 002°23'33 2.2
2020-Sep-01 05:59N 48°38' W 002°02'1313.1
2020-Sep-01 04:59N 48°49' W 002°13'612.9
2020-Sep-01 04:30N 48°53' W 002°20'1812.1
2020-Sep-01 03:01N 49°12' W 002°22'4813.6
2020-Aug-31 23:30N 49°55' W 001°52'814.4
2020-Aug-31 22:55N 50°02' W 001°44'3116.3
2020-Aug-31 21:00N 50°27' W 001°16'22 8.9
2020-Aug-31 18:30N 50°49' W 001°06'6 3.0
2020-Aug-31 16:30N 50°43' W 001°02'611.6
2020-Aug-31 16:00N 50°38' W 001°06'3817.3
2020-Aug-31 13:49N 50°07' W 001°42'7417.2
2020-Aug-31 09:30N 48°58' W 002°22'12 2.6
2020-Aug-31 05:02N 48°48' W 002°12'611.9
2020-Aug-31 04:31N 48°53' W 002°19'1111.4
2020-Aug-31 03:31N 49°04' W 002°22'612.0
2020-Aug-31 03:01N 49°10' W 002°22'1211.6
2020-Aug-31 02:01N 49°21' W 002°18'7515.1
2020-Aug-30 21:02N 50°26' W 001°19'24 5.9
2020-Aug-30 17:01N 50°48' W 001°07'11316.2
2020-Aug-30 10:01N 49°06' W 002°22'  

Dump ship's entire track history